createdAt,value
2022-10-23T10:02:27.068Z,92284.38
2022-10-23T10:06:59.553Z,92288.34
2022-10-23T10:14:37.514Z,92294.75
2022-10-23T10:21:32.928Z,92269.06
2022-10-23T10:24:05.396Z,92268.09
2022-10-23T10:26:38.653Z,92261.84
2022-10-23T10:29:17.861Z,92263.19
2022-10-23T10:32:10.326Z,92265.09
2022-10-23T10:34:49.047Z,92257.56
2022-10-23T10:37:39.935Z,92264.25
2022-10-23T10:40:29.885Z,92272.88
2022-10-23T10:43:05.083Z,92262.22
2022-10-23T10:45:38.108Z,92261.63
2022-10-23T10:48:25.955Z,92251.50
2022-10-23T10:50:53.438Z,92257.38
2022-10-23T10:53:44.837Z,92254.47
2022-10-23T10:56:15.903Z,92252.97
2022-10-23T10:58:48.885Z,92246.34
2022-10-23T11:01:57.668Z,92256.13
2022-10-23T11:04:52.888Z,92253.19
2022-10-23T11:07:22.505Z,92260.84
2022-10-23T11:09:49.152Z,92243.50
2022-10-23T11:12:21.572Z,92236.81
2022-10-23T11:14:48.215Z,92252.13
2022-10-23T11:17:24.455Z,92237.81
2022-10-23T11:20:04.064Z,92240.56
2022-10-23T11:22:37.303Z,92229.81
2022-10-23T11:25:12.815Z,92233.88
2022-10-23T11:28:16.950Z,92227.03
2022-10-23T11:31:19.109Z,92217.03
2022-10-23T11:34:07.662Z,92216.03
2022-10-23T11:36:56.639Z,92216.84
2022-10-23T11:39:27.917Z,92211.00
2022-10-23T11:42:06.829Z,92216.78
2022-10-23T11:44:43.662Z,92211.72
2022-10-23T11:47:31.984Z,92203.63
2022-10-23T11:50:06.669Z,92199.75
2022-10-23T11:52:41.981Z,92207.44
2022-10-23T11:55:25.177Z,92206.16
2022-10-23T11:58:20.333Z,92186.19
2022-10-23T12:00:56.733Z,92198.44
2022-10-23T12:03:27.051Z,92192.25
2022-10-23T12:05:59.227Z,92187.50
2022-10-23T12:08:27.489Z,92188.88
2022-10-23T12:10:55.276Z,92193.47
2022-10-23T12:13:37.411Z,92197.88
2022-10-23T12:16:05.835Z,92185.19
2022-10-23T12:18:53.524Z,92177.75
2022-10-23T12:21:22.191Z,92174.81
2022-10-23T12:24:12.875Z,92190.47
2022-10-23T12:27:01.119Z,92177.91
2022-10-23T12:30:00.102Z,92177.19
2022-10-23T12:32:54.172Z,92168.19
2022-10-23T12:35:20.648Z,92167.06
2022-10-23T12:38:09.863Z,92173.56
2022-10-23T12:40:36.430Z,92186.59
2022-10-23T12:43:03.086Z,92196.75
2022-10-23T12:45:35.005Z,92180.91
2022-10-23T12:48:01.722Z,92180.91
2022-10-23T12:50:30.452Z,92179.41
2022-10-23T12:53:01.838Z,92173.94
2022-10-23T12:55:32.237Z,92175.75
2022-10-23T12:58:01.843Z,92173.25
2022-10-23T13:08:40.876Z,92188.72
2022-10-23T13:11:08.764Z,92180.00
2022-10-23T13:13:35.348Z,92190.25
2022-10-23T13:16:02.059Z,92181.81
2022-10-23T13:18:28.676Z,92190.03
2022-10-23T13:20:57.486Z,92200.66
2022-10-23T13:23:34.248Z,92184.16
2022-10-23T13:26:05.701Z,92185.41
2022-10-23T13:28:41.349Z,92180.91
2022-10-23T13:31:10.888Z,92194.69
2022-10-23T13:33:39.000Z,92185.19
2022-10-23T13:36:14.466Z,92186.69
2022-10-23T13:38:42.343Z,92188.38
2022-10-23T13:41:17.194Z,92201.38
2022-10-23T13:43:44.163Z,92194.03
2022-10-23T13:46:17.787Z,92186.03
2022-10-23T13:48:44.543Z,92189.69
2022-10-23T13:51:28.438Z,92187.66
2022-10-23T13:53:55.843Z,92187.22
2022-10-23T13:56:23.362Z,92188.16
2022-10-23T13:58:50.046Z,92188.56
2022-10-23T14:01:22.264Z,92190.25
2022-10-23T14:03:52.275Z,92197.44
2022-10-23T14:06:19.029Z,92196.41
2022-10-23T14:08:45.787Z,92201.13
2022-10-23T14:11:12.746Z,92196.81
2022-10-23T14:13:39.434Z,92201.47
2022-10-23T14:16:06.500Z,92193.72
2022-10-23T14:18:33.135Z,92199.69
2022-10-23T14:21:08.239Z,92204.66
2022-10-23T14:23:34.938Z,92201.09
2022-10-23T14:26:02.867Z,92194.94
2022-10-23T14:28:29.500Z,92194.81
2022-10-23T14:30:56.099Z,92200.69
2022-10-23T14:33:22.792Z,92182.06
2022-10-23T14:35:52.425Z,92189.56
2022-10-23T14:38:19.091Z,92184.00
2022-10-23T14:40:45.640Z,92184.09
2022-10-23T14:43:12.302Z,92186.22
2022-10-23T14:45:38.980Z,92187.06
2022-10-23T14:48:05.758Z,92185.03
2022-10-23T14:50:32.659Z,92190.38
2022-10-23T14:55:30.751Z,92188.63
2022-10-23T14:57:57.400Z,92189.31
2022-10-23T15:00:24.172Z,92196.75
2022-10-23T15:02:50.833Z,92183.41
2022-10-23T15:05:17.764Z,92192.13
2022-10-23T15:07:44.443Z,92186.84
2022-10-23T15:10:11.194Z,92188.13
2022-10-23T15:12:38.451Z,92194.69
2022-10-23T15:15:06.165Z,92198.38
2022-10-23T15:17:34.041Z,92196.53
2022-10-23T15:20:00.926Z,92197.09
2022-10-23T15:22:27.792Z,92200.78
2022-10-23T15:24:55.095Z,92198.28
2022-10-23T15:27:21.792Z,92199.28
2022-10-23T15:29:48.434Z,92202.16
2022-10-23T15:32:15.139Z,92196.53
2022-10-23T15:34:42.856Z,92208.16
2022-10-23T15:37:09.860Z,92203.72
2022-10-23T15:39:36.722Z,92207.88
2022-10-23T15:42:04.612Z,92207.97
2022-10-23T15:44:31.810Z,92212.03
2022-10-23T15:46:58.551Z,92209.22
2022-10-23T15:49:25.796Z,92217.59
2022-10-23T15:51:52.598Z,92220.31
2022-10-23T15:54:19.535Z,92221.03
2022-10-23T15:56:47.262Z,92229.72
2022-10-23T15:59:14.339Z,92228.44
2022-10-23T16:01:41.103Z,92232.16
2022-10-23T16:04:07.874Z,92227.06
2022-10-23T16:06:34.582Z,92232.31
2022-10-23T16:09:01.266Z,92234.22
2022-10-23T16:11:29.766Z,92240.72
2022-10-23T16:13:57.152Z,92242.09
2022-10-23T16:16:23.992Z,92237.13
2022-10-23T16:18:50.688Z,92239.25
2022-10-23T16:21:20.695Z,92237.50
2022-10-23T16:23:47.302Z,92241.31
2022-10-23T16:26:13.971Z,92237.81
2022-10-23T16:28:40.732Z,92258.81
2022-10-23T16:31:12.911Z,92268.03
2022-10-23T16:33:41.131Z,92265.53
2022-10-23T16:36:08.628Z,92262.13
2022-10-23T16:38:35.644Z,92262.75
2022-10-23T16:41:03.695Z,92264.91
2022-10-23T16:43:33.666Z,92270.50
2022-10-23T16:46:19.821Z,92264.97
2022-10-23T16:48:46.655Z,92273.56
2022-10-23T16:51:14.854Z,92274.25
2022-10-23T16:53:41.922Z,92271.75
2022-10-23T16:56:09.527Z,92272.78
2022-10-23T16:58:36.319Z,92276.50
2022-10-23T17:01:05.936Z,92277.56
2022-10-23T17:03:40.847Z,92278.72
2022-10-23T17:06:11.247Z,92286.22
2022-10-23T17:08:38.310Z,92288.25
2022-10-23T17:11:23.740Z,92282.84
2022-10-23T17:13:58.625Z,92292.06
2022-10-23T17:16:39.232Z,92296.94
2022-10-23T17:19:15.989Z,92297.56
2022-10-23T17:21:47.883Z,92296.69
2022-10-23T17:24:14.529Z,92304.00
2022-10-23T17:26:41.150Z,92299.09
2022-10-23T17:29:09.135Z,92298.41
2022-10-23T17:31:39.843Z,92300.75
2022-10-23T17:34:07.655Z,92293.72
2022-10-23T17:36:37.092Z,92297.69
2022-10-23T17:39:06.956Z,92301.91
2022-10-23T17:41:34.552Z,92299.63
2022-10-23T17:44:01.262Z,92298.19
2022-10-23T17:46:29.198Z,92296.09
2022-10-23T17:49:00.303Z,92291.03
2022-10-23T17:51:28.138Z,92296.97
2022-10-23T17:53:55.927Z,92294.66
2022-10-23T17:56:24.439Z,92294.53
2022-10-23T17:58:55.107Z,92295.38
2022-10-23T18:01:25.162Z,92303.41
2022-10-23T18:03:52.664Z,92293.59
2022-10-23T18:06:23.449Z,92291.03
2022-10-23T18:08:52.541Z,92293.84
2022-10-23T18:11:27.947Z,92295.53
2022-10-23T18:13:54.699Z,92303.97
2022-10-23T18:16:21.377Z,92301.34
2022-10-23T18:18:48.387Z,92307.69
2022-10-23T18:21:15.951Z,92305.22
2022-10-23T18:23:42.641Z,92306.59
2022-10-23T18:26:23.104Z,92308.31
2022-10-23T18:28:51.044Z,92314.97
2022-10-23T18:31:18.283Z,92311.56
2022-10-23T18:33:45.022Z,92305.22
2022-10-23T18:36:22.794Z,92301.56
2022-10-23T18:38:49.579Z,92306.78
2022-10-23T18:41:16.635Z,92303.78
2022-10-23T18:43:44.715Z,92308.91
2022-10-23T18:46:14.289Z,92322.78
